createdAt,value
2023-03-28T00:00:47.394Z,5.98
2023-03-28T00:01:49.447Z,6.85
2023-03-28T00:02:51.412Z,11.75
2023-03-28T00:03:53.439Z,10.58
2023-03-28T00:04:56.391Z,13.36
2023-03-28T00:05:58.989Z,12.09
2023-03-28T00:07:01.291Z,15.01
2023-03-28T00:08:04.327Z,15.17
2023-03-28T00:09:07.871Z,15.32
2023-03-28T00:10:11.361Z,16.56
2023-03-28T00:11:16.245Z,16.66
2023-03-28T00:12:18.873Z,14.70
2023-03-28T00:13:20.829Z,16.85
2023-03-28T00:14:26.627Z,12.29
2023-03-28T00:15:32.426Z,11.19
2023-03-28T00:16:37.789Z,11.10
2023-03-28T00:17:40.160Z,9.80
2023-03-28T00:18:42.309Z,8.58
2023-03-28T00:19:44.189Z,7.82
2023-03-28T00:20:46.163Z,6.65
2023-03-28T00:21:49.598Z,6.81
2023-03-28T00:22:53.738Z,7.30
2023-03-28T00:24:01.428Z,6.71
2023-03-28T00:25:07.663Z,7.20
2023-03-28T00:26:10.021Z,5.92
2023-03-28T00:27:12.032Z,7.53
2023-03-28T00:28:13.901Z,5.79
2023-03-28T00:29:17.255Z,7.03
2023-03-28T00:30:19.621Z,6.24
2023-03-28T00:31:23.213Z,5.96
2023-03-28T00:32:27.428Z,7.25
2023-03-28T00:33:31.559Z,7.66
2023-03-28T00:34:33.472Z,5.54
2023-03-28T00:35:35.408Z,6.45
2023-03-28T00:36:38.289Z,6.92
2023-03-28T00:37:40.196Z,6.24
2023-03-28T00:38:42.357Z,7.43
2023-03-28T00:39:44.829Z,6.45
2023-03-28T00:40:46.822Z,6.56
2023-03-28T00:41:49.107Z,5.91
2023-03-28T00:42:54.191Z,6.91
2023-03-28T00:43:57.279Z,7.97
2023-03-28T00:44:59.160Z,8.15
2023-03-28T00:46:09.047Z,6.13
2023-03-28T00:47:18.867Z,6.81
2023-03-28T00:48:20.796Z,7.59
2023-03-28T00:49:25.276Z,6.37
2023-03-28T00:50:34.555Z,5.49
2023-03-28T00:51:40.348Z,7.18
2023-03-28T00:52:58.345Z,6.13
2023-03-28T00:54:02.482Z,6.28
2023-03-28T00:55:08.343Z,8.45
2023-03-28T00:56:16.469Z,6.17
2023-03-28T00:57:19.983Z,6.44
2023-03-28T00:58:25.263Z,6.01
2023-03-28T00:59:30.933Z,6.73
2023-03-28T01:00:37.716Z,6.59
2023-03-28T01:01:40.912Z,7.87
2023-03-28T01:02:46.649Z,10.28
2023-03-28T01:03:52.612Z,10.69
2023-03-28T01:05:00.632Z,8.70
2023-03-28T01:06:08.164Z,13.93
2023-03-28T01:07:10.133Z,10.79
2023-03-28T01:08:15.805Z,13.24
2023-03-28T01:09:21.133Z,9.03
2023-03-28T01:10:24.625Z,9.97
2023-03-28T01:11:28.677Z,10.23
2023-03-28T01:12:33.299Z,9.52
2023-03-28T01:13:38.887Z,7.88
2023-03-28T01:14:43.214Z,8.22
2023-03-28T01:15:50.846Z,6.16
2023-03-28T01:16:54.985Z,6.79
2023-03-28T01:18:01.634Z,7.54
2023-03-28T01:19:05.777Z,6.74
2023-03-28T01:20:24.078Z,6.55
2023-03-28T01:21:38.513Z,7.31
2023-03-28T01:23:07.182Z,7.35
2023-03-28T01:24:24.359Z,7.33
2023-03-28T01:25:52.974Z,5.77
2023-03-28T01:26:58.754Z,6.59
2023-03-28T01:28:09.894Z,5.58
2023-03-28T01:29:42.703Z,7.36
2023-03-28T01:31:09.889Z,6.27
2023-03-28T01:32:48.694Z,7.31
2023-03-28T01:34:06.754Z,6.42
2023-03-28T01:35:42.278Z,5.96
2023-03-28T01:37:04.731Z,5.81
2023-03-28T01:38:10.396Z,6.27
2023-03-28T01:39:19.390Z,6.13
2023-03-28T01:40:37.136Z,6.98
2023-03-28T01:41:58.172Z,6.10
2023-03-28T01:43:12.961Z,7.38
2023-03-28T01:44:30.590Z,6.62
2023-03-28T01:45:42.493Z,6.13
2023-03-28T01:47:08.267Z,7.01
2023-03-28T01:48:32.691Z,6.67
2023-03-28T01:49:38.388Z,7.45
2023-03-28T01:51:04.365Z,6.92
2023-03-28T01:52:27.400Z,7.01
2023-03-28T01:53:44.686Z,6.15
2023-03-28T01:55:12.491Z,7.32
2023-03-28T01:57:40.408Z,8.91
2023-03-28T01:58:59.839Z,7.72
2023-03-28T02:00:14.531Z,6.42
2023-03-28T02:01:25.720Z,6.82
2023-03-28T02:02:31.492Z,5.97
2023-03-28T02:03:40.687Z,7.45
2023-03-28T02:04:46.296Z,7.81
2023-03-28T02:05:51.073Z,5.98
2023-03-28T02:06:56.473Z,5.75
2023-03-28T02:08:01.246Z,7.94
2023-03-28T02:09:05.276Z,7.59
2023-03-28T02:10:11.322Z,6.10
2023-03-28T02:11:15.756Z,5.53
2023-03-28T02:12:27.380Z,6.20
2023-03-28T02:15:14.808Z,6.32
2023-03-28T02:16:19.439Z,8.11
2023-03-28T02:17:23.510Z,6.11
2023-03-28T02:18:30.584Z,7.82
2023-03-28T02:19:36.279Z,6.07
2023-03-28T02:20:41.671Z,6.77
2023-03-28T02:21:53.583Z,6.29
2023-03-28T02:23:08.099Z,7.72
2023-03-28T02:24:13.852Z,5.53
2023-03-28T02:25:17.904Z,5.60
2023-03-28T02:26:21.431Z,6.30
2023-03-28T02:27:24.779Z,5.39
2023-03-28T02:28:29.788Z,6.36
2023-03-28T02:29:31.697Z,6.49
2023-03-28T02:30:35.021Z,5.84
2023-03-28T02:31:37.346Z,5.85
2023-03-28T02:32:39.320Z,6.17
2023-03-28T02:33:46.729Z,7.20
2023-03-28T02:34:51.460Z,6.92
2023-03-28T02:35:57.459Z,7.57
2023-03-28T02:37:04.043Z,5.55
2023-03-28T02:38:24.852Z,8.80
2023-03-28T02:39:47.254Z,7.24
2023-03-28T02:42:29.795Z,7.06
2023-03-28T02:43:44.692Z,6.43
2023-03-28T02:45:06.898Z,6.76
2023-03-28T02:46:15.787Z,7.52
2023-03-28T02:47:40.234Z,8.54
2023-03-28T02:49:00.640Z,7.08
2023-03-28T02:50:23.248Z,8.37
2023-03-28T02:51:49.057Z,7.37
2023-03-28T02:52:54.742Z,7.09
2023-03-28T02:54:23.341Z,9.58
2023-03-28T02:55:47.334Z,7.41
2023-03-28T02:56:59.233Z,6.14
2023-03-28T02:58:17.178Z,6.97
2023-03-28T02:59:31.743Z,7.17
2023-03-28T03:00:37.344Z,7.22
2023-03-28T03:01:39.470Z,7.78
2023-03-28T03:02:43.655Z,8.41
2023-03-28T03:03:45.779Z,8.96
2023-03-28T03:04:49.924Z,8.75
2023-03-28T03:05:51.829Z,8.45
2023-03-28T03:06:53.824Z,6.71
2023-03-28T03:07:55.877Z,7.40
2023-03-28T03:08:58.484Z,7.11
2023-03-28T03:10:00.418Z,8.68
2023-03-28T03:11:02.275Z,8.31
2023-03-28T03:12:04.950Z,10.98
2023-03-28T03:13:06.820Z,8.53
2023-03-28T03:14:08.660Z,7.45
2023-03-28T03:15:14.102Z,8.09
2023-03-28T03:16:16.344Z,8.54
2023-03-28T03:17:20.266Z,7.29
2023-03-28T03:18:22.476Z,8.61
2023-03-28T03:19:24.360Z,7.88
2023-03-28T03:20:29.301Z,10.10
2023-03-28T03:21:31.222Z,10.38
2023-03-28T03:22:33.969Z,8.11
2023-03-28T03:23:35.834Z,9.24
2023-03-28T03:24:38.140Z,7.20
2023-03-28T03:25:40.150Z,11.29
2023-03-28T03:26:42.110Z,9.23
2023-03-28T03:27:44.080Z,9.18
2023-03-28T03:28:45.960Z,9.47
2023-03-28T03:29:47.828Z,9.89
2023-03-28T03:30:55.320Z,10.42
2023-03-28T03:31:57.239Z,9.16
2023-03-28T03:32:59.175Z,10.05
2023-03-28T03:34:01.716Z,8.65
2023-03-28T03:35:05.131Z,9.79
2023-03-28T03:36:09.637Z,8.42
2023-03-28T03:37:11.708Z,8.81
2023-03-28T03:38:14.006Z,9.31
2023-03-28T03:39:15.964Z,11.28
2023-03-28T03:40:18.251Z,8.87
2023-03-28T03:41:20.105Z,9.60
2023-03-28T03:42:22.080Z,7.99
2023-03-28T03:43:24.062Z,8.47
2023-03-28T03:44:25.933Z,9.50
2023-03-28T03:45:27.954Z,12.06
2023-03-28T03:46:33.894Z,7.58
2023-03-28T03:47:37.444Z,9.20
2023-03-28T03:48:49.487Z,8.46
2023-03-28T03:49:43.643Z,9.15
2023-03-28T03:50:45.732Z,8.67
2023-03-28T03:51:49.116Z,8.83
2023-03-28T03:52:51.075Z,11.71
2023-03-28T03:53:53.863Z,14.06
2023-03-28T03:54:58.907Z,12.39
2023-03-28T03:56:02.513Z,13.75
2023-03-28T03:57:04.580Z,15.86
2023-03-28T03:58:07.412Z,8.86
2023-03-28T03:59:10.023Z,9.95
2023-03-28T04:00:14.010Z,10.99
2023-03-28T04:01:16.450Z,18.63
2023-03-28T04:02:19.072Z,27.52
2023-03-28T04:03:24.709Z,25.41
2023-03-28T04:04:25.338Z,13.48
2023-03-28T04:05:27.419Z,13.72
2023-03-28T04:06:29.468Z,11.01
2023-03-28T04:07:33.979Z,9.63
2023-03-28T04:08:36.432Z,10.38
2023-03-28T04:09:39.647Z,10.03
2023-03-28T04:10:42.920Z,9.69
2023-03-28T04:11:44.783Z,9.25
2023-03-28T04:12:46.650Z,8.50
2023-03-28T04:13:48.560Z,10.31
2023-03-28T04:14:50.924Z,8.52
2023-03-28T04:15:55.355Z,12.07
2023-03-28T04:16:57.472Z,10.23
2023-03-28T04:17:59.743Z,11.01
2023-03-28T04:19:02.944Z,8.45
2023-03-28T04:20:07.437Z,9.01
2023-03-28T04:21:09.346Z,9.42
2023-03-28T04:22:11.301Z,10.19
2023-03-28T04:23:13.134Z,8.17
2023-03-28T04:24:15.805Z,10.86
2023-03-28T04:25:17.857Z,7.77
2023-03-28T04:26:21.482Z,12.67
2023-03-28T04:27:23.659Z,8.78
2023-03-28T04:28:25.523Z,9.54
2023-03-28T04:29:27.377Z,9.31
2023-03-28T04:30:29.865Z,11.21
2023-03-28T04:31:32.789Z,9.93
2023-03-28T04:32:35.851Z,10.04
2023-03-28T04:33:59.067Z,10.11
2023-03-28T04:35:01.632Z,8.62
2023-03-28T04:36:04.938Z,8.35
2023-03-28T04:37:06.843Z,9.19
2023-03-28T04:38:08.750Z,8.59
2023-03-28T04:39:11.278Z,9.63
2023-03-28T04:40:13.339Z,7.91
2023-03-28T04:41:17.144Z,11.00
2023-03-28T04:42:19.194Z,8.42
2023-03-28T04:43:21.082Z,8.99
2023-03-28T04:44:23.251Z,8.56
2023-03-28T04:45:25.375Z,9.56
2023-03-28T04:46:27.742Z,7.85
2023-03-28T04:47:31.443Z,9.98
2023-03-28T04:48:34.712Z,10.99
2023-03-28T04:49:39.027Z,9.27
2023-03-28T04:50:41.020Z,9.37
2023-03-28T04:51:45.680Z,12.04
2023-03-28T04:52:47.569Z,9.51
2023-03-28T04:53:49.460Z,8.68
2023-03-28T04:54:51.697Z,10.10
2023-03-28T04:55:54.717Z,14.58
2023-03-28T04:56:56.758Z,8.17
2023-03-28T04:57:59.906Z,9.23
2023-03-28T04:59:01.800Z,9.14
2023-03-28T05:00:04.766Z,9.09
2023-03-28T05:01:07.319Z,10.91
2023-03-28T05:02:11.389Z,12.93
2023-03-28T05:03:16.189Z,12.26
2023-03-28T05:04:21.190Z,10.39
2023-03-28T05:05:23.205Z,9.78
2023-03-28T05:06:25.167Z,8.97
2023-03-28T05:07:27.101Z,11.81
2023-03-28T05:08:29.189Z,10.77
2023-03-28T05:09:32.267Z,8.76
2023-03-28T05:10:34.275Z,10.11
2023-03-28T05:11:36.139Z,10.37
2023-03-28T05:12:38.107Z,9.77
2023-03-28T05:13:39.956Z,8.05
2023-03-28T05:14:41.947Z,8.43
2023-03-28T05:15:46.389Z,9.47
2023-03-28T05:16:48.455Z,9.16
2023-03-28T05:17:50.690Z,9.62
2023-03-28T05:18:52.735Z,8.15
2023-03-28T05:19:54.720Z,10.04
2023-03-28T05:20:56.766Z,8.93
2023-03-28T05:21:58.951Z,11.31
2023-03-28T05:23:01.930Z,9.24
2023-03-28T05:24:04.697Z,8.55
2023-03-28T05:25:08.335Z,8.51
2023-03-28T05:26:11.365Z,8.98
2023-03-28T05:27:13.229Z,9.88
2023-03-28T05:28:15.151Z,11.73
2023-03-28T05:29:17.268Z,10.11
2023-03-28T05:30:19.900Z,9.49
2023-03-28T05:31:21.908Z,8.13
2023-03-28T05:32:24.941Z,11.05
2023-03-28T05:33:27.648Z,9.43
2023-03-28T05:34:29.618Z,8.12
2023-03-28T05:35:32.065Z,10.25
2023-03-28T05:36:35.337Z,11.59
2023-03-28T05:37:40.466Z,11.02
2023-03-28T05:38:41.703Z,10.59
2023-03-28T05:39:44.452Z,8.55
2023-03-28T05:40:46.912Z,9.63
2023-03-28T05:41:49.063Z,9.29
2023-03-28T05:42:51.259Z,9.45
2023-03-28T05:43:53.125Z,9.42
2023-03-28T05:44:55.103Z,9.19
2023-03-28T05:46:00.280Z,10.15
2023-03-28T05:47:04.669Z,9.04
2023-03-28T05:48:06.791Z,10.78
2023-03-28T05:49:08.977Z,9.35
2023-03-28T05:50:11.284Z,11.61
2023-03-28T05:51:13.088Z,9.75
2023-03-28T05:52:14.948Z,9.33
2023-03-28T05:53:16.958Z,11.57
2023-03-28T05:54:19.297Z,9.59
2023-03-28T05:55:21.171Z,8.19
2023-03-28T05:56:23.153Z,10.40
2023-03-28T05:57:25.809Z,8.91
2023-03-28T05:58:27.717Z,9.35
2023-03-28T05:59:29.602Z,10.71
2023-03-28T06:00:31.799Z,9.59
2023-03-28T06:01:35.269Z,11.81
2023-03-28T06:02:38.272Z,9.41
2023-03-28T06:03:40.447Z,10.59
2023-03-28T06:04:43.836Z,10.05
2023-03-28T06:05:46.916Z,10.22
2023-03-28T06:06:49.544Z,8.32
2023-03-28T06:07:53.659Z,10.28
2023-03-28T06:08:55.906Z,9.99
2023-03-28T06:10:00.047Z,11.67
2023-03-28T06:11:03.160Z,10.39
2023-03-28T06:12:07.854Z,11.56
2023-03-28T06:13:11.426Z,11.23
2023-03-28T06:14:13.346Z,11.47
2023-03-28T06:15:17.143Z,9.72
2023-03-28T06:16:19.217Z,10.32
2023-03-28T06:17:25.401Z,12.59
2023-03-28T06:18:27.363Z,9.51
2023-03-28T06:19:29.304Z,11.10
2023-03-28T06:20:31.523Z,10.25
2023-03-28T06:21:33.513Z,11.36
2023-03-28T06:22:37.024Z,9.85
2023-03-28T06:23:39.030Z,9.09
2023-03-28T06:24:40.942Z,7.95
2023-03-28T06:25:43.331Z,14.12
2023-03-28T06:26:45.318Z,14.77
2023-03-28T06:27:47.325Z,13.24
2023-03-28T06:28:49.412Z,10.88
2023-03-28T06:29:51.342Z,10.12
2023-03-28T06:30:54.649Z,12.82
2023-03-28T06:31:56.869Z,10.28
2023-03-28T06:33:00.199Z,13.94
2023-03-28T06:34:02.965Z,13.08
2023-03-28T06:35:06.178Z,16.68
2023-03-28T06:36:11.069Z,14.55
2023-03-28T06:37:13.328Z,14.23
2023-03-28T06:38:15.263Z,14.29
2023-03-28T06:39:17.296Z,14.22
2023-03-28T06:40:19.450Z,11.73
2023-03-28T06:41:22.564Z,11.83
2023-03-28T06:42:24.536Z,15.68
2023-03-28T06:43:26.523Z,10.49
2023-03-28T06:44:32.102Z,14.40
2023-03-28T06:45:34.041Z,10.37
2023-03-28T06:46:36.325Z,12.79
2023-03-28T06:47:38.369Z,9.70
2023-03-28T06:48:40.678Z,9.83
2023-03-28T06:49:42.594Z,10.56
2023-03-28T06:50:45.520Z,9.93
2023-03-28T06:51:47.416Z,8.75
2023-03-28T06:52:52.570Z,9.94
2023-03-28T06:53:54.570Z,10.21
2023-03-28T06:54:56.430Z,8.96
2023-03-28T06:55:58.333Z,9.41
2023-03-28T06:57:00.338Z,9.60
2023-03-28T06:58:03.368Z,9.57
2023-03-28T06:59:05.646Z,8.39
2023-03-28T07:00:09.446Z,9.99
2023-03-28T07:01:11.848Z,8.48
2023-03-28T07:02:13.997Z,7.93
2023-03-28T07:03:15.952Z,8.95
2023-03-28T07:04:18.030Z,8.16
2023-03-28T07:05:19.903Z,9.16
2023-03-28T07:06:25.877Z,9.47
2023-03-28T07:07:27.804Z,7.47
2023-03-28T07:08:30.850Z,6.13
2023-03-28T07:09:32.751Z,5.15
2023-03-28T07:10:38.158Z,6.57
2023-03-28T07:11:41.422Z,9.31
2023-03-28T07:12:47.362Z,7.42
2023-03-28T07:13:54.846Z,6.00
2023-03-28T07:14:56.774Z,5.48
2023-03-28T07:16:11.484Z,9.13
2023-03-28T07:17:15.738Z,9.69
2023-03-28T07:18:18.630Z,6.28
2023-03-28T07:19:20.753Z,6.01
2023-03-28T07:20:24.144Z,7.51
2023-03-28T07:21:26.235Z,5.66
2023-03-28T07:22:28.939Z,6.64
2023-03-28T07:23:30.829Z,5.05
2023-03-28T07:24:33.825Z,6.00
2023-03-28T07:25:35.685Z,6.25
2023-03-28T07:26:37.756Z,7.23
2023-03-28T07:27:39.648Z,6.18
2023-03-28T07:28:42.868Z,5.88
2023-03-28T07:29:46.263Z,5.14
2023-03-28T07:30:48.485Z,6.23
2023-03-28T07:31:50.457Z,6.14
2023-03-28T07:33:01.664Z,6.46
2023-03-28T07:33:58.636Z,8.12
2023-03-28T07:35:00.626Z,5.32
2023-03-28T07:36:17.277Z,5.51
2023-03-28T07:37:19.385Z,5.43
2023-03-28T07:38:22.702Z,6.91
2023-03-28T07:39:24.972Z,6.60
2023-03-28T07:40:27.165Z,5.17
2023-03-28T07:41:29.033Z,5.33
2023-03-28T07:42:32.144Z,5.12
2023-03-28T07:43:36.336Z,5.97
2023-03-28T07:44:42.197Z,5.19
2023-03-28T07:45:44.131Z,6.03
2023-03-28T07:46:46.499Z,4.99
2023-03-28T07:47:48.574Z,8.56
2023-03-28T07:48:50.711Z,5.60
2023-03-28T07:49:53.768Z,5.21
2023-03-28T07:50:57.065Z,5.30
2023-03-28T07:51:59.753Z,6.01
2023-03-28T07:53:02.127Z,5.79
2023-03-28T07:54:04.015Z,5.25
2023-03-28T07:55:07.216Z,6.85
2023-03-28T07:56:10.806Z,5.27
2023-03-28T07:57:12.906Z,5.49
2023-03-28T07:58:14.985Z,5.98
2023-03-28T07:59:18.812Z,4.63
2023-03-28T08:00:24.168Z,5.78
2023-03-28T08:01:26.413Z,5.54
2023-03-28T08:02:28.425Z,5.63
2023-03-28T08:03:30.733Z,4.41
2023-03-28T08:04:32.884Z,6.26
2023-03-28T08:05:35.064Z,5.13
2023-03-28T08:06:39.894Z,10.99
2023-03-28T08:07:42.763Z,6.65
2023-03-28T08:08:44.683Z,6.12
2023-03-28T08:09:46.667Z,5.03
2023-03-28T08:10:48.636Z,6.53
2023-03-28T08:11:50.510Z,5.61
2023-03-28T08:12:52.389Z,5.69
2023-03-28T08:13:54.265Z,6.27
2023-03-28T08:14:57.494Z,5.49
2023-03-28T08:16:00.318Z,6.15
2023-03-28T08:17:02.861Z,5.55
2023-03-28T08:18:04.984Z,5.59
2023-03-28T08:19:11.905Z,6.87
2023-03-28T08:20:11.905Z,7.95
2023-03-28T08:21:14.010Z,6.79
2023-03-28T08:22:15.918Z,9.09
2023-03-28T08:23:17.953Z,8.27
2023-03-28T08:24:33.005Z,7.63
2023-03-28T08:25:26.426Z,7.02
2023-03-28T08:26:30.271Z,5.43
2023-03-28T08:27:32.365Z,5.99
2023-03-28T08:28:36.403Z,10.45
2023-03-28T08:29:40.659Z,8.26
2023-03-28T08:30:43.431Z,6.94
2023-03-28T08:31:45.638Z,7.75
2023-03-28T08:32:49.170Z,6.80
2023-03-28T08:33:54.464Z,6.80
2023-03-28T08:34:56.398Z,6.81
2023-03-28T08:36:00.370Z,5.41
2023-03-28T08:37:03.444Z,7.19
2023-03-28T08:38:05.416Z,6.29
2023-03-28T08:39:07.291Z,6.61
2023-03-28T08:40:13.894Z,6.80
2023-03-28T08:41:34.634Z,7.37
2023-03-28T08:42:55.579Z,7.43
2023-03-28T08:44:18.907Z,7.83
2023-03-28T08:45:27.424Z,5.86
2023-03-28T08:46:31.569Z,8.68
2023-03-28T08:47:54.135Z,8.64
2023-03-28T08:49:00.380Z,7.94
2023-03-28T08:50:14.519Z,7.35
2023-03-28T08:51:36.685Z,7.67
2023-03-28T08:52:42.901Z,11.42
2023-03-28T08:54:05.528Z,8.62
2023-03-28T08:55:26.504Z,9.47
2023-03-28T08:56:30.892Z,9.74
2023-03-28T08:57:35.237Z,9.19
2023-03-28T08:58:53.106Z,9.99
2023-03-28T09:00:05.012Z,9.28
2023-03-28T09:01:08.899Z,9.18
2023-03-28T09:02:23.111Z,9.49
2023-03-28T09:03:26.938Z,8.52
2023-03-28T09:04:34.534Z,9.12
2023-03-28T09:06:01.519Z,7.86
2023-03-28T09:07:08.641Z,8.37
2023-03-28T09:08:26.772Z,9.16
2023-03-28T09:11:01.875Z,8.71
2023-03-28T09:12:27.742Z,10.48
2023-03-28T09:13:46.669Z,11.63
2023-03-28T09:15:06.981Z,14.82
2023-03-28T09:17:39.807Z,11.91
2023-03-28T09:19:03.809Z,12.14
2023-03-28T09:20:28.763Z,13.31
2023-03-28T09:21:52.833Z,8.47
2023-03-28T09:23:04.969Z,9.99
2023-03-28T09:24:13.694Z,11.54
2023-03-28T09:25:37.408Z,9.37
2023-03-28T09:26:43.394Z,8.06
2023-03-28T09:27:55.027Z,8.04
2023-03-28T09:29:03.437Z,6.70
2023-03-28T09:31:27.044Z,10.12
2023-03-28T09:32:33.009Z,8.14
2023-03-28T09:33:43.143Z,10.07
2023-03-28T09:34:54.138Z,8.66
2023-03-28T09:35:57.028Z,9.50
2023-03-28T09:37:04.002Z,9.81
2023-03-28T09:38:12.768Z,8.88
2023-03-28T09:39:34.771Z,9.26
2023-03-28T09:40:41.501Z,7.66
2023-03-28T09:43:28.937Z,7.60
2023-03-28T09:44:40.938Z,8.76
2023-03-28T09:46:01.394Z,8.22
2023-03-28T09:47:07.963Z,7.46
2023-03-28T09:48:22.677Z,7.82
2023-03-28T09:49:27.024Z,7.33
2023-03-28T09:50:29.743Z,6.42
2023-03-28T09:51:32.344Z,8.16
2023-03-28T09:52:34.240Z,6.92
2023-03-28T09:53:37.335Z,6.65
2023-03-28T09:54:40.967Z,7.41
2023-03-28T09:55:49.048Z,5.27
2023-03-28T09:56:47.184Z,3.84
2023-03-28T09:58:04.207Z,3.97
2023-03-28T09:59:12.997Z,4.67
2023-03-28T10:00:19.329Z,5.08
2023-03-28T10:01:30.398Z,4.66
2023-03-28T10:02:33.766Z,5.13
2023-03-28T10:03:36.233Z,4.11
2023-03-28T10:04:40.220Z,5.81
2023-03-28T10:05:42.174Z,4.81
2023-03-28T10:06:46.591Z,4.46
2023-03-28T10:07:48.597Z,5.60
2023-03-28T10:08:51.227Z,5.03
2023-03-28T10:09:56.271Z,3.33
2023-03-28T10:13:17.739Z,3.58
2023-03-28T10:14:43.668Z,4.33
2023-03-28T10:15:46.612Z,4.80
2023-03-28T10:16:52.457Z,3.54
2023-03-28T10:17:57.844Z,4.18
2023-03-28T10:19:01.022Z,3.95
2023-03-28T10:20:15.872Z,4.92
2023-03-28T10:21:27.151Z,4.01
2023-03-28T10:23:39.819Z,5.33
2023-03-28T10:24:45.317Z,4.93
2023-03-28T10:25:51.597Z,4.21
2023-03-28T10:27:14.006Z,3.47
2023-03-28T10:28:29.056Z,5.13
2023-03-28T10:29:33.283Z,4.60
2023-03-28T10:30:36.921Z,3.18
2023-03-28T10:31:41.787Z,4.59
2023-03-28T10:32:46.121Z,4.01
2023-03-28T10:33:51.195Z,3.78
2023-03-28T10:35:09.319Z,3.32
2023-03-28T10:36:15.336Z,3.29
2023-03-28T10:37:29.236Z,4.34
2023-03-28T10:38:38.463Z,7.06
2023-03-28T10:39:40.443Z,6.09
2023-03-28T10:42:02.831Z,4.35
2023-03-28T10:43:11.691Z,4.89
2023-03-28T10:44:32.585Z,3.70
2023-03-28T10:45:38.303Z,3.87
2023-03-28T10:46:40.519Z,4.41
2023-03-28T10:47:43.816Z,3.94
2023-03-28T10:48:49.545Z,3.49
2023-03-28T10:49:55.348Z,5.47
2023-03-28T10:51:01.038Z,4.98
2023-03-28T10:52:07.000Z,5.38
2023-03-28T10:53:27.996Z,3.92
2023-03-28T10:54:33.680Z,3.96
2023-03-28T10:55:40.419Z,5.54
2023-03-28T10:56:51.961Z,2.94
2023-03-28T10:58:14.595Z,3.42
2023-03-28T10:59:26.009Z,3.01
2023-03-28T11:00:33.403Z,3.23
2023-03-28T11:01:48.116Z,3.56
2023-03-28T11:03:02.625Z,4.37
2023-03-28T11:04:21.004Z,6.72
2023-03-28T11:06:01.768Z,4.70
2023-03-28T11:07:03.314Z,3.43
2023-03-28T11:09:19.015Z,3.49
2023-03-28T11:10:37.024Z,4.08
2023-03-28T11:11:47.500Z,4.27
2023-03-28T11:12:59.313Z,5.01
2023-03-28T11:14:05.148Z,5.27
2023-03-28T11:15:19.693Z,3.84
2023-03-28T11:16:45.386Z,5.68
2023-03-28T11:18:03.616Z,4.48
2023-03-28T11:19:35.163Z,5.06
2023-03-28T11:20:46.902Z,4.89
2023-03-28T11:22:14.275Z,4.30
2023-03-28T11:23:39.830Z,4.18
2023-03-28T11:26:36.964Z,3.58
2023-03-28T11:27:42.801Z,11.61
2023-03-28T11:28:57.095Z,4.46
2023-03-28T11:30:15.632Z,4.38
2023-03-28T11:31:21.762Z,3.32
2023-03-28T11:32:36.928Z,3.37
2023-03-28T11:34:05.610Z,3.17
2023-03-28T11:35:23.402Z,3.50
2023-03-28T11:36:35.236Z,4.47
2023-03-28T11:37:42.619Z,5.04
2023-03-28T11:40:04.095Z,5.79
2023-03-28T11:41:18.944Z,4.43
2023-03-28T11:42:33.680Z,4.90
2023-03-28T11:43:51.393Z,5.22
2023-03-28T11:44:57.057Z,5.96
2023-03-28T11:46:02.745Z,4.75
2023-03-28T11:47:09.640Z,4.33
2023-03-28T11:48:28.133Z,4.77
2023-03-28T11:49:41.690Z,3.98
2023-03-28T11:51:05.953Z,4.22
2023-03-28T11:52:21.015Z,6.11
2023-03-28T11:53:32.315Z,4.97
2023-03-28T11:54:42.012Z,4.68
2023-03-28T11:55:59.503Z,6.71
2023-03-28T11:57:05.635Z,4.68
2023-03-28T11:58:15.169Z,5.51
2023-03-28T12:00:34.759Z,4.02
2023-03-28T12:01:41.587Z,4.38
2023-03-28T12:02:47.578Z,4.13
2023-03-28T12:04:02.074Z,4.14
2023-03-28T12:05:26.291Z,3.39
2023-03-28T12:07:02.883Z,4.33
2023-03-28T12:08:29.141Z,5.99
2023-03-28T12:09:37.864Z,5.57
2023-03-28T12:10:43.529Z,3.07
2023-03-28T12:11:49.747Z,5.07
2023-03-28T12:13:13.690Z,5.19
2023-03-28T12:14:43.913Z,3.87
2023-03-28T12:15:52.413Z,4.33
2023-03-28T12:16:58.428Z,4.44
2023-03-28T12:18:03.913Z,5.26
2023-03-28T12:19:09.814Z,4.73
2023-03-28T12:20:31.426Z,4.07
2023-03-28T12:21:37.082Z,6.24
2023-03-28T12:22:42.780Z,4.31
2023-03-28T12:24:17.449Z,5.37
2023-03-28T12:25:23.355Z,5.14
2023-03-28T12:26:50.263Z,4.81
2023-03-28T12:27:58.722Z,4.76
2023-03-28T12:29:17.412Z,4.08
2023-03-28T12:30:36.426Z,5.63
2023-03-28T12:31:51.552Z,6.18
2023-03-28T12:32:57.281Z,4.27
2023-03-28T12:34:09.395Z,5.64
2023-03-28T12:35:18.059Z,4.51
2023-03-28T12:36:26.895Z,4.53
2023-03-28T12:37:41.618Z,5.32
2023-03-28T12:39:10.545Z,3.92
2023-03-28T12:40:26.700Z,4.94
2023-03-28T12:41:32.091Z,3.93
2023-03-28T12:42:36.037Z,3.52
2023-03-28T12:44:00.208Z,4.74
2023-03-28T12:45:06.043Z,4.27
2023-03-28T12:46:12.140Z,3.98
2023-03-28T12:47:19.074Z,3.34
2023-03-28T12:48:31.039Z,3.97
2023-03-28T12:49:49.453Z,4.97
2023-03-28T12:52:35.549Z,4.04
2023-03-28T12:53:46.409Z,4.73
2023-03-28T12:55:48.517Z,3.86
2023-03-28T12:57:06.758Z,3.64
2023-03-28T12:58:24.935Z,3.86
2023-03-28T12:59:39.926Z,3.38
2023-03-28T13:01:00.841Z,4.34
2023-03-28T13:02:07.090Z,4.12
2023-03-28T13:04:31.832Z,3.60
2023-03-28T13:06:01.651Z,4.28
2023-03-28T13:07:22.999Z,5.07
2023-03-28T13:08:43.801Z,5.33
2023-03-28T13:09:49.843Z,6.43
2023-03-28T13:11:10.343Z,11.46
2023-03-28T13:12:24.993Z,11.56
2023-03-28T13:13:39.857Z,9.23
2023-03-28T13:14:42.079Z,5.01
2023-03-28T13:16:08.070Z,7.01
2023-03-28T13:17:23.894Z,5.05
2023-03-28T13:18:29.670Z,5.67
2023-03-28T13:19:52.510Z,5.05
2023-03-28T13:20:56.271Z,6.84
2023-03-28T13:21:58.158Z,7.83
2023-03-28T13:23:03.893Z,8.03
2023-03-28T13:24:25.847Z,7.82
2023-03-28T13:25:34.210Z,6.49
2023-03-28T13:26:57.607Z,6.61
2023-03-28T13:28:18.705Z,7.16
2023-03-28T13:29:21.662Z,4.50
2023-03-28T13:30:34.514Z,7.41
2023-03-28T13:31:40.342Z,6.81
2023-03-28T13:32:46.130Z,7.19
2023-03-28T13:34:00.720Z,5.07
2023-03-28T13:35:05.007Z,4.47
2023-03-28T13:36:12.801Z,5.21
2023-03-28T13:37:24.702Z,5.64
2023-03-28T13:38:30.487Z,5.37
2023-03-28T13:39:32.520Z,6.38
2023-03-28T13:40:50.569Z,5.34
2023-03-28T13:41:55.692Z,5.16
2023-03-28T13:42:59.525Z,5.09
2023-03-28T13:44:05.178Z,4.48
2023-03-28T13:45:20.820Z,5.44
2023-03-28T13:46:29.847Z,7.96
2023-03-28T13:47:38.668Z,5.71
2023-03-28T13:48:45.318Z,3.63
2023-03-28T13:50:06.894Z,4.01
2023-03-28T13:51:12.746Z,7.84
2023-03-28T13:52:23.205Z,9.15
2023-03-28T13:53:28.233Z,9.30
2023-03-28T13:54:28.983Z,8.26
2023-03-28T13:55:31.612Z,5.83
2023-03-28T13:56:35.319Z,6.26
2023-03-28T13:57:37.830Z,2.93
2023-03-28T13:58:45.439Z,4.82
2023-03-28T13:59:54.191Z,4.74
2023-03-28T14:01:09.838Z,4.96
2023-03-28T14:02:18.649Z,3.46
2023-03-28T14:03:21.189Z,4.02
2023-03-28T14:04:27.226Z,3.37
2023-03-28T14:05:32.814Z,3.93
2023-03-28T14:06:38.625Z,3.56
2023-03-28T14:07:40.987Z,3.35
2023-03-28T14:08:49.857Z,3.61
2023-03-28T14:09:52.305Z,4.13
2023-03-28T14:10:58.407Z,3.69
2023-03-28T14:12:08.084Z,3.31
2023-03-28T14:13:22.594Z,3.59
2023-03-28T14:14:34.067Z,4.74
2023-03-28T14:15:38.525Z,6.23
2023-03-28T14:16:44.267Z,6.45
2023-03-28T14:17:47.058Z,6.47
2023-03-28T14:18:51.184Z,6.89
2023-03-28T14:20:00.167Z,7.22
2023-03-28T14:21:05.294Z,7.22
2023-03-28T14:22:09.696Z,6.29
2023-03-28T14:23:24.582Z,9.06
2023-03-28T14:24:28.099Z,5.91
2023-03-28T14:25:34.114Z,4.43
2023-03-28T14:26:36.685Z,5.34
2023-03-28T14:27:44.423Z,14.05
2023-03-28T14:28:51.011Z,4.86
2023-03-28T14:29:54.544Z,4.73
2023-03-28T14:30:57.856Z,2.68
2023-03-28T14:32:00.180Z,2.42
2023-03-28T14:33:15.024Z,1.67
2023-03-28T14:34:27.408Z,1.37
2023-03-28T14:35:34.853Z,1.82
2023-03-28T14:36:55.377Z,2.21
2023-03-28T14:37:59.902Z,1.83
2023-03-28T14:39:05.797Z,1.84
2023-03-28T14:40:19.353Z,1.46
2023-03-28T14:41:21.630Z,1.23
2023-03-28T14:42:26.504Z,1.70
2023-03-28T14:43:29.459Z,1.54
2023-03-28T14:44:38.084Z,1.59
2023-03-28T14:45:43.769Z,1.18
2023-03-28T14:46:48.551Z,1.56
2023-03-28T14:47:50.949Z,1.25
2023-03-28T14:48:56.034Z,1.48
2023-03-28T14:49:59.546Z,0.97
2023-03-28T14:51:03.500Z,2.13
2023-03-28T14:52:09.198Z,1.91
2023-03-28T14:53:23.754Z,1.75
2023-03-28T14:54:35.409Z,1.71
2023-03-28T14:55:39.156Z,1.89
2023-03-28T14:56:46.316Z,0.82
2023-03-28T14:57:52.862Z,1.28
2023-03-28T14:58:58.714Z,2.36
2023-03-28T15:00:01.840Z,1.00
2023-03-28T15:01:06.420Z,1.61
2023-03-28T15:02:29.893Z,1.54
2023-03-28T15:03:35.626Z,2.55
2023-03-28T15:04:38.643Z,1.56
2023-03-28T15:05:44.341Z,2.60
2023-03-28T15:06:55.869Z,10.53
2023-03-28T15:08:02.677Z,3.21
2023-03-28T15:09:21.340Z,1.63
2023-03-28T15:10:25.222Z,0.99
2023-03-28T15:11:33.918Z,1.13
2023-03-28T15:13:10.076Z,1.10
2023-03-28T15:14:15.857Z,1.12